KDKK/DKK METAR and TAF weather

Enter ICAO airport designator
Station Type Date Time Source
KDKK METAR 2018/01/22 11:53 UTC NOAA

KDKK 221153Z AUTO 00000KT 5SM BR OVC012 06/04 A3002 RMK AO2 SLP170 T00610039 10144 20056 55003


Station Type Date Time Source
KDKK Decoded METAR 2018/01/22 11:53 UTC NOAA

CHAUTAUQUA COUNTY/DUNKIRK, NY, United States (KDKK) 42-30N 079-17W 202M
Jan 22, 2018 - 06:53 AM EST / 2018.01.22 1153 UTC
Wind: Calm:0
Visibility: 5 mile(s):0
Sky conditions: overcast
Weather: mist
Temperature: 43.0 F (6.1 C)
Dew Point: 39.0 F (3.9 C)
Relative Humidity: 85%
Pressure (altimeter): 30.02 in. Hg (1016 hPa)
Pressure tendency: 0.01 inches (0.3 hPa) lower than three hours ago
ob: KDKK 221153Z AUTO 00000KT 5SM BR OVC012 06/04 A3002 RMK AO2 SLP170 T00610039 10144 20056 55003
cycle: 12

Station Type Date Time Source
KDKK TAF UTC NOAA

Error!


Example: see airport list